Welcome to Northern Hawkes Bay. New Zealand.
PWS Header
      nz Flag



Hit Counter


W3C Valid W3C Valid logo


    Wairoa

Select any of the Stations below to visit their websites.










Historic Data from Weather Underground
Select the location of interest below. Wairoa is the default. Please have patience, this Data is slow to load in.
Northern Hawkes Bay Historical Data
Daily Summary for February 6, 2017 Units:  English    Metric   Both
« Previous Day
Next Day »
Daily Weekly Monthly Yearly Custom
  High: Low: Average:
Temperature: 95 °F 58.6 °F 74.1 °F
Dew Point: 64.6 °F 48.4 °F 58.3 °F
Humidity: 91% 23% 63%
Wind Speed: 12.1mph 0mph 4mph
Wind Gust: 18.3mph - -
Wind- - West
Pressure: 30.1 in 29.8 in -
Precipitation: 0 in    
Historical Graphs
 
 
Tabular Data for February 6, 2017
Time Temperature Dew Point Pressure Wind Wind Speed Wind Gust Humidity Rainfall Rate (Hourly) solar
00:02 63 °F 58.6 °F 30.1 in Calm     86% 0 in 0 W/m2
00:07 62.8 °F 58.8 °F 30.1 in Calm     87% 0 in 0 W/m2
00:12 62.6 °F 58.6 °F 30.1 in North 0.7 mph 1.6 mph 87% 0 in 0 W/m2
00:17 62.6 °F 59 °F 30.1 in Calm   1.6 mph 88% 0 in 0 W/m2
00:22 62.2 °F 59 °F 30.1 in North 1.6 mph 2.2 mph 89% 0 in 0 W/m2
00:27 62.4 °F 59.5 °F 30.1 in North 1.6 mph 2.2 mph 90% 0 in 0 W/m2
00:32 62.2 °F 59.4 °F 30.1 in North 2.2 mph 3.8 mph 90% 0 in 0 W/m2
00:37 62.2 °F 58.6 °F 30.1 in NNW 2.2 mph 3.8 mph 88% 0 in 0 W/m2
00:42 62.1 °F 58.3 °F 30.1 in North 1.6 mph 3.8 mph 87% 0 in 0 W/m2
00:47 62.4 °F 58.3 °F 30.1 in North 3.1 mph 3.8 mph 86% 0 in 0 W/m2
00:52 62.4 °F 58.3 °F 30.1 in NNW 1.6 mph 3.8 mph 86% 0 in 0 W/m2
00:57 62.2 °F 57.9 °F 30 in NNW 2.2 mph 3.8 mph 86% 0 in 0 W/m2
01:02 62.2 °F 57.9 °F 30.1 in NNW 1.6 mph 3.8 mph 86% 0 in 0 W/m2
01:07 62.2 °F 57.7 °F 30.1 in NNW 3.1 mph 3.8 mph 85% 0 in 0 W/m2
01:12 62.2 °F 57.4 °F 30.1 in NNW 3.1 mph 4.5 mph 84% 0 in 0 W/m2
01:17 62.2 °F 57.4 °F 30 in NNW 1.6 mph 4.5 mph 84% 0 in 0 W/m2
01:22 61.5 °F 56.3 °F 30 in NNW 1.6 mph 4.5 mph 83% 0 in 0 W/m2
01:27 61.9 °F 57 °F 30.1 in NW 1.6 mph 3.8 mph 84% 0 in 0 W/m2
01:32 61.9 °F 57.4 °F 30.1 in NNW 1.6 mph 3.8 mph 85% 0 in 0 W/m2
01:37 61.7 °F 57.2 °F 30 in North 3.1 mph 3.8 mph 85% 0 in 0 W/m2
01:42 61.9 °F 57.4 °F 30 in NNW 3.1 mph 6 mph 85% 0 in 0 W/m2
01:47 62.2 °F 57.4 °F 30 in NNW 3.8 mph 8.3 mph 84% 0 in 0 W/m2
01:52 62.6 °F 57 °F 30 in NNW 6 mph 8.3 mph 82% 0 in 0 W/m2
01:57 62.6 °F 56.7 °F 30 in NW 4.5 mph 7.6 mph 81% 0 in 0 W/m2
02:02 62.4 °F 56.8 °F 30 in NW 3.1 mph 7.6 mph 82% 0 in 0 W/m2
02:07 62.2 °F 56.7 °F 30 in NNW 3.1 mph 7.6 mph 82% 0 in 0 W/m2
02:12 62.1 °F 56.8 °F 30 in NNW 4.5 mph 6 mph 83% 0 in 0 W/m2
02:17 61.7 °F 56.5 °F 30 in NNW 3.1 mph 6 mph 83% 0 in 0 W/m2
02:22 62.2 °F 57.4 °F 30 in NNW 2.2 mph 5.4 mph 84% 0 in 0 W/m2
02:27 61.5 °F 56.7 °F 30 in NNW 2.2 mph 5.4 mph 84% 0 in 0 W/m2
02:32 61.5 °F 56.7 °F 30 in NW 3.1 mph 5.4 mph 84% 0 in 0 W/m2
02:37 61.5 °F 56.7 °F 30 in NNW 3.8 mph 5.4 mph 84% 0 in 0 W/m2
02:42 61.3 °F 56.5 °F 30 in NNW 3.1 mph 5.4 mph 84% 0 in 0 W/m2
02:47 61.3 °F 56.5 °F 30 in NNW 3.8 mph 6 mph 84% 0 in 0 W/m2
02:52 61.5 °F 56.7 °F 30 in NNW 3.8 mph 6 mph 84% 0 in 0 W/m2
02:57 61.5 °F 56.7 °F 30 in NNW 2.2 mph 5.4 mph 84% 0 in 0 W/m2
03:02 62.2 °F 57.7 °F 30 in NNW 3.8 mph 5.4 mph 85% 0 in 0 W/m2
03:07 61.3 °F 56.8 °F 30 in NNW 3.1 mph 6 mph 85% 0 in 0 W/m2
03:12 61 °F 56.8 °F 30 in NNW 3.1 mph 6 mph 86% 0 in 0 W/m2
03:17 61 °F 56.8 °F 30 in NNW 2.2 mph 5.4 mph 86% 0 in 0 W/m2
03:22 61.2 °F 56.7 °F 30 in NNW 4.5 mph 6.9 mph 85% 0 in 0 W/m2
03:27 61.5 °F 57 °F 30 in NNW 5.4 mph 8.3 mph 85% 0 in 0 W/m2
03:32 61.7 °F 56.8 °F 30 in NW 3.1 mph 8.3 mph 84% 0 in 0 W/m2
03:37 61.5 °F 56.7 °F 30 in NW 3.8 mph 7.6 mph 84% 0 in 0 W/m2
03:42 61.5 °F 56.7 °F 30 in NW 3.1 mph 5.4 mph 84% 0 in 0 W/m2
03:47 60.8 °F 55.9 °F 30 in NW 2.2 mph 5.4 mph 84% 0 in 0 W/m2
03:52 60.6 °F 56.5 °F 30 in NW 4.5 mph 6.9 mph 86% 0 in 0 W/m2
03:57 60.8 °F 56.3 °F 30 in NW 3.1 mph 6.9 mph 85% 0 in 0 W/m2
04:02 61.3 °F 56.5 °F 30 in NNW 2.2 mph 6.9 mph 84% 0 in 0 W/m2
04:07 60.6 °F 56.1 °F 30 in NNW 3.8 mph 5.4 mph 85% 0 in 0 W/m2
04:12 60.8 °F 56.3 °F 30 in NNW 2.2 mph 5.4 mph 85% 0 in 0 W/m2
04:17 60.6 °F 56.5 °F 30 in NNW 1.6 mph 5.4 mph 86% 0 in 0 W/m2
04:22 59.9 °F 55.8 °F 30 in NNW 3.8 mph 6 mph 86% 0 in 0 W/m2
04:27 60.8 °F 56.3 °F 30 in NNW 3.1 mph 6 mph 85% 0 in 0 W/m2
04:32 61 °F 56.5 °F 30 in NNW 3.1 mph 6.9 mph 85% 0 in 0 W/m2
04:37 61 °F 56.1 °F 30 in Calm   6.9 mph 84% 0 in 0 W/m2
04:42 60.8 °F 55.9 °F 30 in Calm   4.5 mph 84% 0 in 0 W/m2
04:47 60.4 °F 55.9 °F 30 in NW 1.6 mph 3.1 mph 85% 0 in 0 W/m2
04:52 60.3 °F 56.1 °F 30 in WNW 2.2 mph 3.8 mph 86% 0 in 0 W/m2
04:57 60.1 °F 55.9 °F 30 in NW 3.1 mph 3.8 mph 86% 0 in 0 W/m2
05:02 59.9 °F 55.9 °F 30 in NNW 3.8 mph 5.4 mph 87% 0 in 0 W/m2
05:07 59.7 °F 56.1 °F 30 in NNW 3.8 mph 6 mph 88% 0 in 0 W/m2
05:12 59.5 °F 55.9 °F 30 in NNW 3.1 mph 6 mph 88% 0 in 0 W/m2
05:17 59.5 °F 56.3 °F 30 in NNW 3.1 mph 4.5 mph 89% 0 in 0 W/m2
05:22 59.9 °F 56.7 °F 30 in NNW 3.1 mph 6 mph 89% 0 in 0 W/m2
05:27 59.9 °F 56.7 °F 30 in North 3.1 mph 6 mph 89% 0 in 0 W/m2
05:32 59.9 °F 56.5 °F 30 in North 5.4 mph 7.6 mph 88% 0 in 0 W/m2
05:37 60.1 °F 56.5 °F 30 in NNW 5.4 mph 7.6 mph 88% 0 in 0 W/m2
05:42 60.3 °F 56.5 °F 30 in NNW 3.8 mph 7.6 mph 87% 0 in 0 W/m2
05:47 60.1 °F 56.1 °F 30 in NNW 3.1 mph 7.6 mph 87% 0 in 0 W/m2
05:52 60.1 °F 56.1 °F 30 in NNW 3.1 mph 6.9 mph 87% 0 in 0 W/m2
05:57 59.9 °F 55.9 °F 30 in NNW 2.2 mph 6 mph 87% 0 in 0 W/m2
06:02 59.7 °F 55.9 °F 30 in NNW 3.1 mph 5.4 mph 87% 0 in 0 W/m2
06:07 59.7 °F 56.1 °F 30 in NNW 3.1 mph 6.9 mph 88% 0 in 0 W/m2
06:27 58.8 °F 55.9 °F 30 in NNW 1.6 mph 5.4 mph 90% 0 in 1 W/m2
06:32 58.6 °F 55.8 °F 30 in NNW 1.6 mph 3.8 mph 90% 0 in 4 W/m2
06:37 58.6 °F 55.9 °F 30 in NNW 1.6 mph 3.8 mph 91% 0 in 7 W/m2
06:42 58.6 °F 55.9 °F 30 in NNW 2.2 mph 3.8 mph 91% 0 in 12 W/m2
06:47 58.8 °F 56.1 °F 30 in NNW 2.2 mph 3.8 mph 91% 0 in 15 W/m2
06:52 58.8 °F 56.1 °F 30 in North 3.1 mph 4.5 mph 91% 0 in 19 W/m2
06:57 59 °F 56.1 °F 30 in North 3.1 mph 6 mph 90% 0 in 24 W/m2
07:02 59 °F 56.1 °F 30 in NNW 3.1 mph 6 mph 90% 0 in 33 W/m2
07:21 59.5 °F 56.3 °F 30 in NNW 2.2 mph 6 mph 89% 0 in 55 W/m2
07:26 59.5 °F 56.3 °F 30 in NNW 2.2 mph 6 mph 89% 0 in 61 W/m2
07:31 59.9 °F 56.7 °F 30 in NNW 2.2 mph 6 mph 89% 0 in 64 W/m2
07:36 60.1 °F 56.8 °F 30 in NW 2.2 mph 3.8 mph 89% 0 in 68 W/m2
07:41 60.4 °F 56.8 °F 30 in NW 3.1 mph 5.4 mph 88% 0 in 72 W/m2
07:46 60.4 °F 56.8 °F 30 in NW 2.2 mph 5.4 mph 88% 0 in 76 W/m2
07:51 60.6 °F 56.7 °F 30 in NW 3.1 mph 5.4 mph 87% 0 in 80 W/m2
07:56 60.8 °F 56.7 °F 30 in NNW 3.1 mph 5.4 mph 86% 0 in 84 W/m2
08:01 61 °F 56.8 °F 30 in NW 3.1 mph 6 mph 86% 0 in 92 W/m2
08:06 61.3 °F 57 °F 30 in NNW 3.1 mph 6 mph 86% 0 in 96 W/m2
08:11 61.7 °F 57.2 °F 30 in North 2.2 mph 5.4 mph 85% 0 in 91 W/m2
08:16 62.1 °F 57.2 °F 30 in North 3.1 mph 6.9 mph 84% 0 in 92 W/m2
08:21 62.2 °F 57.4 °F 30 in NNW 6 mph 7.6 mph 84% 0 in 102 W/m2
08:26 62.4 °F 57.2 °F 30 in NNW 3.8 mph 7.6 mph 83% 0 in 160 W/m2
08:31 63 °F 57.4 °F 30 in NW 5.4 mph 7.6 mph 82% 0 in 154 W/m2
08:36 63.9 °F 57.9 °F 30 in NNW 6 mph 6.9 mph 81% 0 in 140 W/m2
08:41 63.9 °F 57.6 °F 30 in NNW 5.4 mph 9.2 mph 80% 0 in 154 W/m2
08:46 64.8 °F 58.5 °F 30 in NNW 4.5 mph 9.2 mph 80% 0 in 200 W/m2
08:51 65.8 °F 58.5 °F 30 in NNW 3.8 mph 9.8 mph 77% 0 in 156 W/m2
09:09 67.8 °F 58.8 °F 30 in NNW 3.8 mph 8.3 mph 73% 0 in 173 W/m2
09:14 67.5 °F 58.8 °F 30 in NNW 3.8 mph 9.2 mph 74% 0 in 147 W/m2
09:19 67.1 °F 58.6 °F 30 in NNW 3.1 mph 9.2 mph 74% 0 in 185 W/m2
09:24 67.5 °F 58.8 °F 30 in NW 4.5 mph 8.3 mph 74% 0 in 360 W/m2
09:29 68.2 °F 59.2 °F 30 in NW 1.6 mph 6.9 mph 73% 0 in 239 W/m2
09:34 69.3 °F 60.3 °F 30 in NNW 1.6 mph 6 mph 73% 0 in 425 W/m2
09:39 71.1 °F 60.1 °F 30 in NNW 3.1 mph 4.5 mph 68% 0 in 461 W/m2
09:44 72.7 °F 59.7 °F 30 in North 3.1 mph 5.4 mph 64% 0 in 476 W/m2
09:49 73.8 °F 60.1 °F 30 in North 3.1 mph 5.4 mph 62% 0 in 497 W/m2
09:55 74.7 °F 60.8 °F 30 in North 2.2 mph 5.4 mph 62% 0 in 531 W/m2
10:00 76.6 °F 60.8 °F 30 in North 3.8 mph 5.4 mph 58% 0 in 557 W/m2
10:05 77.2 °F 59.7 °F 30 in North 3.1 mph 6 mph 55% 0 in 568 W/m2
10:10 78.3 °F 61.3 °F 30 in North 3.8 mph 6 mph 56% 0 in 597 W/m2
10:15 79.5 °F 61 °F 30 in NNE 2.2 mph 4.5 mph 53% 0 in 622 W/m2
10:20 81 °F 60.1 °F 30 in NNE 2.2 mph 5.4 mph 49% 0 in 646 W/m2
10:25 80.8 °F 59.4 °F 30 in Calm   6 mph 48% 0 in 669 W/m2
10:30 82.2 °F 60.1 °F 30 in North 3.8 mph 6 mph 47% 0 in 701 W/m2
10:35 82.6 °F 60.4 °F 30 in NNE 4.5 mph 6 mph 47% 0 in 735 W/m2
10:40 83.3 °F 60.4 °F 30 in North 3.8 mph 6 mph 46% 0 in 800 W/m2
10:45 83.8 °F 60.3 °F 30 in North 3.8 mph 6.9 mph 45% 0 in 888 W/m2
10:50 83.3 °F 59.7 °F 30 in NNW 0.7 mph 7.6 mph 45% 0 in 471 W/m2
10:55 83.8 °F 60.3 °F 30 in NNW 3.1 mph 7.6 mph 45% 0 in 735 W/m2
11:00 85.5 °F 63 °F 30 in North 3.1 mph 6.9 mph 47% 0 in 825 W/m2
11:05 84.9 °F 64.2 °F 30 in South 3.8 mph 7.6 mph 50% 0 in 866 W/m2
11:10 83.8 °F 64.4 °F 30 in South 4.5 mph 7.6 mph 52% 0 in 855 W/m2
11:15 82.8 °F 62.2 °F 30 in SSE 3.8 mph 8.3 mph 50% 0 in 816 W/m2
11:20 82 °F 62.2 °F 30 in SE 6 mph 8.3 mph 51% 0 in 896 W/m2
11:25 80.8 °F 61.5 °F 30 in SSE 6.9 mph 9.2 mph 52% 0 in 894 W/m2
11:30 79.9 °F 62.2 °F 30 in South 3.1 mph 9.8 mph 55% 0 in 908 W/m2
11:35 80.6 °F 61.9 °F 30 in South 6 mph 9.8 mph 53% 0 in 925 W/m2
11:40 79.9 °F 62.2 °F 30 in South 6 mph 10.7 mph 55% 0 in 934 W/m2
11:45 78.6 °F 63.1 °F 30 in South 6.9 mph 10.7 mph 59% 0 in 936 W/m2
11:50 78.1 °F 64.6 °F 30 in South 6.9 mph 12.1 mph 63% 0 in 935 W/m2
11:55 78.1 °F 63.1 °F 30 in South 6.9 mph 12.1 mph 60% 0 in 952 W/m2
12:00 78.8 °F 62.2 °F 30 in South 6.9 mph 9.8 mph 57% 0 in 961 W/m2
12:05 79.3 °F 61.9 °F 30 in South 4.5 mph 9.8 mph 55% 0 in 972 W/m2
12:10 79.7 °F 61.5 °F 30 in South 4.5 mph 9.8 mph 54% 0 in 976 W/m2
12:15 80.1 °F 62.4 °F 29.9 in SSE 5.4 mph 9.8 mph 55% 0 in 979 W/m2
12:20 80.6 °F 61.3 °F 29.9 in SSE 4.5 mph 9.8 mph 52% 0 in 988 W/m2
12:25 81.1 °F 61.3 °F 29.9 in South 5.4 mph 9.2 mph 51% 0 in 995 W/m2
12:30 80.4 °F 61.2 °F 29.9 in SSE 6.9 mph 11.4 mph 52% 0 in 992 W/m2
12:35 80.8 °F 60.4 °F 29.9 in SSE 5.4 mph 11.4 mph 50% 0 in 992 W/m2
12:40 81.3 °F 60.4 °F 29.9 in South 6 mph 9.8 mph 49% 0 in 997 W/m2
12:45 82.2 °F 61.2 °F 29.9 in South 6 mph 9.8 mph 49% 0 in 1002 W/m2
12:50 81.9 °F 61.3 °F 29.9 in SSE 6 mph 9.8 mph 50% 0 in 1003 W/m2
12:55 81.3 °F 61 °F 29.9 in South 5.4 mph 10.7 mph 50% 0 in 997 W/m2
13:00 81 °F 62.2 °F 29.9 in SSE 3.8 mph 10.7 mph 53% 0 in 978 W/m2
13:05 81.5 °F 61.2 °F 29.9 in SSE 6 mph 10.7 mph 50% 0 in 1004 W/m2
13:10 81.9 °F 61 °F 29.9 in South 3.8 mph 9.2 mph 49% 0 in 1002 W/m2
13:15 82.4 °F 61.3 °F 29.9 in SSE 5.4 mph 11.4 mph 49% 0 in 999 W/m2
13:20 82.8 °F 60.4 °F 29.9 in SSE 5.4 mph 11.4 mph 47% 0 in 996 W/m2
13:25 82.8 °F 61.2 °F 29.9 in SSE 5.4 mph 8.3 mph 48% 0 in 992 W/m2
13:30 82.4 °F 60.8 °F 29.9 in SSE 3.1 mph 8.3 mph 48% 0 in 985 W/m2
13:35 83.5 °F 61.2 °F 29.9 in SSE 3.8 mph 9.2 mph 47% 0 in 988 W/m2
13:40 83.5 °F 60.1 °F 29.9 in SSE 4.5 mph 10.7 mph 45% 0 in 985 W/m2
13:45 84.2 °F 60.1 °F 29.9 in South 3.1 mph 10.7 mph 44% 0 in 983 W/m2
13:50 84.9 °F 60.6 °F 29.9 in South 4.5 mph 7.6 mph 44% 0 in 981 W/m2
13:55 85.1 °F 60.8 °F 29.9 in South 4.5 mph 8.3 mph 44% 0 in 978 W/m2
14:00 84.9 °F 59.4 °F 29.9 in SSE 7.6 mph 10.7 mph 42% 0 in 984 W/m2
14:05 84.9 °F 60.6 °F 29.9 in SSE 6 mph 10.7 mph 44% 0 in 997 W/m2
14:10 84.7 °F 59.7 °F 29.9 in SSE 4.5 mph 11.4 mph 43% 0 in 993 W/m2
14:15 85.5 °F 59.2 °F 29.9 in SSE 3.8 mph 11.4 mph 41% 0 in 853 W/m2
14:20 86 °F 59.5 °F 29.9 in South 6 mph 10.7 mph 41% 0 in 803 W/m2
14:25 85.8 °F 60.1 °F 29.9 in SSE 2.2 mph 10.7 mph 42% 0 in 948 W/m2
14:30 86.7 °F 58.8 °F 29.9 in SSE 2.2 mph 10.7 mph 39% 0 in 1083 W/m2
14:35 88.7 °F 59.2 °F 29.9 in SSE 3.8 mph 9.2 mph 37% 0 in 926 W/m2
14:40 88.3 °F 60.3 °F 29.9 in South 8.3 mph 11.4 mph 39% 0 in 603 W/m2
14:45 86.4 °F 61.3 °F 29.9 in SSE 5.4 mph 11.4 mph 43% 0 in 527 W/m2
14:50 85.6 °F 61.3 °F 29.9 in SSE 3.1 mph 11.4 mph 44% 0 in 324 W/m2
14:55 85.8 °F 59.4 °F 29.9 in South 3.8 mph 8.3 mph 41% 0 in 298 W/m2
15:00 85.1 °F 61.3 °F 29.9 in SW 2.2 mph 8.3 mph 45% 0 in 277 W/m2
15:05 84.6 °F 61.5 °F 29.9 in SW 4.5 mph 8.3 mph 46% 0 in 303 W/m2
15:10 83.5 °F 62.4 °F 29.9 in SW 6 mph 7.6 mph 49% 0 in 414 W/m2
15:15 83.5 °F 62.4 °F 29.9 in SW 3.8 mph 7.6 mph 49% 0 in 472 W/m2
15:20 84.7 °F 61.7 °F 29.9 in SSW 4.5 mph 6.9 mph 46% 0 in 470 W/m2
15:25 85.5 °F 62.4 °F 29.9 in South 3.8 mph 6.9 mph 46% 0 in 299 W/m2
15:30 84.4 °F 62.1 °F 29.9 in South 4.5 mph 6 mph 47% 0 in 306 W/m2
15:35 83.7 °F 63.1 °F 29.9 in South 1.6 mph 6 mph 50% 0 in 420 W/m2
15:40 84.6 °F 63.3 °F 29.9 in South 3.1 mph 6 mph 49% 0 in 401 W/m2
15:45 85.3 °F 63.3 °F 29.9 in Calm   6 mph 48% 0 in 392 W/m2
15:50 87.8 °F 53.4 °F 29.9 in NW 10.7 mph 14.5 mph 31% 0 in 347 W/m2
15:55 89.2 °F 53.8 °F 29.9 in NNW 6.9 mph 14.5 mph 30% 0 in 319 W/m2
16:00 90 °F 51.6 °F 29.9 in NNW 5.4 mph 14.5 mph 27% 0 in 373 W/m2
16:05 90.7 °F 51.1 °F 29.9 in NNW 6.9 mph 14.5 mph 26% 0 in 500 W/m2
16:10 91.2 °F 52.5 °F 29.9 in North 5.4 mph 14.5 mph 27% 0 in 429 W/m2
16:15 91.6 °F 54.9 °F 29.8 in North 6 mph 13.6 mph 29% 0 in 309 W/m2
16:20 91.2 °F 51.6 °F 29.9 in North 9.2 mph 13.6 mph 26% 0 in 351 W/m2
16:25 92.1 °F 55.4 °F 29.8 in North 8.3 mph 13 mph 29% 0 in 662 W/m2
16:30 93.4 °F 53.4 °F 29.8 in North 3.8 mph 13 mph 26% 0 in 659 W/m2
16:35 94.5 °F 54.3 °F 29.8 in NNW 4.5 mph 13.6 mph 26% 0 in 541 W/m2
16:40 94.1 °F 53.1 °F 29.8 in NNW 8.3 mph 14.5 mph 25% 0 in 583 W/m2
16:45 93.7 °F 53.8 °F 29.8 in NNW 7.6 mph 16.8 mph 26% 0 in 600 W/m2
16:50 93.7 °F 52.7 °F 29.8 in North 7.6 mph 16.8 mph 25% 0 in 485 W/m2
16:55 93 °F 54.1 °F 29.8 in North 10.7 mph 18.3 mph 27% 0 in 459 W/m2
17:00 92.7 °F 54 °F 29.8 in North 10.7 mph 18.3 mph 27% 0 in 401 W/m2
17:05 92.7 °F 54.9 °F 29.8 in North 9.2 mph 15.9 mph 28% 0 in 320 W/m2
17:10 92.1 °F 54.3 °F 29.8 in North 5.4 mph 14.5 mph 28% 0 in 430 W/m2
17:15 93 °F 55.2 °F 29.8 in NNE 5.4 mph 13 mph 28% 0 in 446 W/m2
17:20 93.6 °F 54.7 °F 29.8 in NNE 6 mph 13.6 mph 27% 0 in 413 W/m2
17:25 93.4 °F 54.5 °F 29.8 in North 9.2 mph 15.2 mph 27% 0 in 398 W/m2
17:30 93.2 °F 54.3 °F 29.8 in North 8.3 mph 15.9 mph 27% 0 in 439 W/m2
17:35 94.5 °F 56.5 °F 29.8 in NW 4.5 mph 15.9 mph 28% 0 in 495 W/m2
17:40 95 °F 59.7 °F 29.8 in SW 6 mph 9.8 mph 31% 0 in 460 W/m2
17:45 91.8 °F 62.6 °F 29.8 in SW 5.4 mph 13 mph 38% 0 in 418 W/m2
17:50 90 °F 63.1 °F 29.8 in SW 6.9 mph 13 mph 41% 0 in 397 W/m2
17:55 90 °F 60.3 °F 29.8 in SW 4.5 mph 12.1 mph 37% 0 in 373 W/m2
18:00 89.8 °F 60.8 °F 29.8 in SW 6 mph 9.8 mph 38% 0 in 355 W/m2
18:05 89.4 °F 59.7 °F 29.8 in SW 7.6 mph 11.4 mph 37% 0 in 310 W/m2
18:10 88.3 °F 56.5 °F 29.9 in SW 6.9 mph 11.4 mph 34% 0 in 307 W/m2
18:15 90 °F 56.1 °F 29.8 in WSW 0.7 mph 10.7 mph 32% 0 in 328 W/m2
18:20 93.4 °F 52.3 °F 29.8 in West 6 mph 13.6 mph 25% 0 in 298 W/m2
18:25 93.7 °F 51.6 °F 29.8 in NW 6 mph 14.5 mph 24% 0 in 164 W/m2
18:30 93.2 °F 51.1 °F 29.8 in NW 6.9 mph 15.2 mph 24% 0 in 175 W/m2
18:35 91.9 °F 51.1 °F 29.8 in WNW 6 mph 15.2 mph 25% 0 in 195 W/m2
18:40 91.2 °F 48.4 °F 29.9 in NW 8.3 mph 14.5 mph 23% 0 in 117 W/m2
18:45 90.5 °F 48.7 °F 29.9 in WNW 6 mph 14.5 mph 24% 0 in 106 W/m2
18:50 90.1 °F 48.6 °F 29.9 in WNW 5.4 mph 13 mph 24% 0 in 100 W/m2
18:55 89.4 °F 48.9 °F 29.9 in WNW 3.8 mph 10.7 mph 25% 0 in 100 W/m2
19:00 89.1 °F 49.8 °F 29.9 in NW 2.2 mph 9.8 mph 26% 0 in 112 W/m2
19:05 89.1 °F 49.8 °F 29.9 in WNW 9.2 mph 14.5 mph 26% 0 in 110 W/m2
19:10 89.1 °F 49.8 °F 29.9 in NW 8.3 mph 14.5 mph 26% 0 in 106 W/m2
19:15 89.1 °F 49.8 °F 29.9 in NW 8.3 mph 15.9 mph 26% 0 in 106 W/m2
19:20 88.7 °F 49.5 °F 29.9 in NW 5.4 mph 16.8 mph 26% 0 in 93 W/m2
19:25 88.5 °F 50.4 °F 29.9 in WNW 7.6 mph 16.8 mph 27% 0 in 87 W/m2
19:30 88.5 °F 51.3 °F 29.9 in West 3.1 mph 12.1 mph 28% 0 in 89 W/m2
19:35 86.9 °F 61.9 °F 29.9 in SW 10.7 mph 14.5 mph 43% 0 in 89 W/m2
19:40 82.4 °F 61.3 °F 29.9 in SW 7.6 mph 16.8 mph 49% 0 in 58 W/m2
19:45 80.2 °F 61.5 °F 29.9 in SW 9.2 mph 16.8 mph 53% 0 in 31 W/m2
19:50 78.6 °F 61.7 °F 29.9 in SW 6.9 mph 15.2 mph 56% 0 in 23 W/m2
19:55 77.4 °F 63 °F 29.9 in SW 9.2 mph 15.2 mph 61% 0 in 22 W/m2
20:00 76.1 °F 63.5 °F 29.9 in SW 6 mph 14.5 mph 65% 0 in 21 W/m2
20:05 75.6 °F 63 °F 29.9 in SW 12.1 mph 14.5 mph 65% 0 in 18 W/m2
20:10 75.2 °F 62.8 °F 29.9 in SW 8.3 mph 14.5 mph 65% 0 in 9 W/m2
20:15 74.8 °F 62.8 °F 29.9 in SW 9.8 mph 14.5 mph 66% 0 in 4 W/m2
20:20 74.5 °F 62.4 °F 29.9 in SW 4.5 mph 14.5 mph 66% 0 in 1 W/m2
20:25 74.3 °F 62.2 °F 29.9 in SSW 5.4 mph 11.4 mph 66% 0 in 0 W/m2
20:30 73.9 °F 62.2 °F 29.9 in SSW 7.6 mph 9.8 mph 67% 0 in 0 W/m2
20:32 73.8 °F 62.2 °F 29.9 in SSW 6 mph 9.8 mph 67% 0 in 0 W/m2
20:37 73.6 °F 62.1 °F 29.9 in SSW 7.6 mph 11.4 mph 67% 0 in 0 W/m2
20:42 73.6 °F 62.1 °F 29.9 in SW 3.8 mph 11.4 mph 67% 0 in 0 W/m2
20:59 72.5 °F 62.6 °F 29.9 in SW 5.4 mph 9.8 mph 71% 0 in 0 W/m2
21:04 72.3 °F 62.4 °F 29.9 in SW 3.8 mph 9.2 mph 71% 0 in 0 W/m2
21:09 72.1 °F 62.2 °F 29.9 in SW 4.5 mph 8.3 mph 71% 0 in 0 W/m2
21:14 72 °F 62.1 °F 29.9 in SSW 1.6 mph 6.9 mph 71% 0 in 0 W/m2
21:19 71.8 °F 61.9 °F 29.9 in South 0.7 mph 6.9 mph 71% 0 in 0 W/m2
21:25 71.4 °F 62.2 °F 29.9 in Calm   3.8 mph 73% 0 in 0 W/m2
21:30 71.2 °F 62.2 °F 29.9 in SE 0.7 mph 3.1 mph 73% 0 in 0 W/m2
21:35 71.1 °F 62.4 °F 29.9 in Calm   3.1 mph 74% 0 in 0 W/m2
21:40 70.9 °F 62.6 °F 29.9 in Calm   2.2 mph 75% 0 in 0 W/m2
21:45 70.9 °F 62.6 °F 29.9 in Calm   2.2 mph 75% 0 in 0 W/m2
21:50 70.7 °F 62.4 °F 29.9 in ENE 0.7 mph 3.1 mph 75% 0 in 0 W/m2
21:55 70.7 °F 62.8 °F 29.9 in Calm   3.1 mph 76% 0 in 0 W/m2
22:00 70.7 °F 62.8 °F 29.9 in NE 1.6 mph 3.1 mph 76% 0 in 0 W/m2
22:05 70.7 °F 62.4 °F 29.9 in NW 0.7 mph 3.1 mph 75% 0 in 0 W/m2
22:10 70.3 °F 62.1 °F 29.9 in NNW 0.7 mph 3.1 mph 75% 0 in 0 W/m2
22:15 70.2 °F 61.9 °F 29.9 in Calm   2.2 mph 75% 0 in 0 W/m2
22:20 69.8 °F 61.5 °F 29.9 in Calm   2.2 mph 75% 0 in 0 W/m2
22:25 69.8 °F 61.9 °F 29.9 in Calm   2.2 mph 76% 0 in 0 W/m2
22:30 69.8 °F 61.9 °F 29.9 in Calm   2.2 mph 76% 0 in 0 W/m2
22:35 69.8 °F 61.5 °F 29.9 in North 1.6 mph 3.1 mph 75% 0 in 0 W/m2
22:40 70.2 °F 61.5 °F 29.9 in North 2.2 mph 3.1 mph 74% 0 in 0 W/m2
22:45 70.2 °F 61.5 °F 29.9 in Calm   3.1 mph 74% 0 in 0 W/m2
22:50 70.2 °F 61.2 °F 29.9 in Calm   3.8 mph 73% 0 in 0 W/m2
22:55 70.2 °F 60.6 °F 29.9 in NW 3.1 mph 4.5 mph 72% 0 in 0 W/m2
23:00 70.7 °F 59.5 °F 29.9 in NW 3.8 mph 5.4 mph 68% 0 in 0 W/m2
23:03 71.4 °F 59.5 °F 29.9 in NW 3.1 mph 5.4 mph 66% 0 in 0 W/m2
23:08 72.5 °F 58.8 °F 29.9 in NNW 2.2 mph 5.4 mph 62% 0 in 0 W/m2
23:13 73.2 °F 59 °F 29.9 in North 5.4 mph 8.3 mph 61% 0 in 0 W/m2
23:18 74.1 °F 57.9 °F 29.9 in NNW 3.8 mph 9.2 mph 57% 0 in 0 W/m2
23:23 74.7 °F 57.9 °F 29.9 in NW 5.4 mph 9.8 mph 56% 0 in 0 W/m2
23:28 75 °F 57.7 °F 29.9 in NNW 4.5 mph 9.8 mph 55% 0 in 0 W/m2
23:33 74.8 °F 57.6 °F 29.9 in NNW 3.1 mph 9.2 mph 55% 0 in 0 W/m2
23:38 74.5 °F 57.4 °F 29.9 in NNW 4.5 mph 8.3 mph 55% 0 in 0 W/m2
23:43 74.1 °F 57 °F 29.9 in NNW 3.8 mph 8.3 mph 55% 0 in 0 W/m2
23:48 73.8 °F 57 °F 29.9 in NNW 5.4 mph 7.6 mph 56% 0 in 0 W/m2
23:53 73.8 °F 56.7 °F 29.9 in NW 4.5 mph 7.6 mph 55% 0 in 0 W/m2
23:58 73.9 °F 56.8 °F 29.9 in NNW 3.8 mph 7.6 mph 55% 0 in 0 W/m2
Northern Hawkes Bay. New Zealand Historic Data
Compliments of Weather Underground - 2.25 mb